createdAt,value
2023-05-21T00:00:55.813Z,10.68
2023-05-21T00:01:55.792Z,11.15
2023-05-21T00:02:55.835Z,10.65
2023-05-21T00:03:55.887Z,10.18
2023-05-21T00:04:55.811Z,11.43
2023-05-21T00:05:55.871Z,11.61
2023-05-21T00:06:55.776Z,11.93
2023-05-21T00:07:55.780Z,12.34
2023-05-21T00:08:55.776Z,11.59
2023-05-21T00:09:55.765Z,11.32
2023-05-21T00:10:55.787Z,10.82
2023-05-21T00:11:55.831Z,10.44
2023-05-21T00:12:55.767Z,10.44
2023-05-21T00:13:55.795Z,11.24
2023-05-21T00:14:55.766Z,11.56
2023-05-21T00:15:55.800Z,10.80
2023-05-21T00:16:55.768Z,10.80
2023-05-21T00:17:55.780Z,10.53
2023-05-21T00:18:55.829Z,11.52
2023-05-21T00:19:55.756Z,11.24
2023-05-21T00:20:55.767Z,10.47
2023-05-21T00:21:55.782Z,11.14
2023-05-21T00:22:55.759Z,13.11
2023-05-21T00:23:55.748Z,11.84
2023-05-21T00:24:55.760Z,11.59
2023-05-21T00:25:56.922Z,12.09
2023-05-21T00:26:55.901Z,11.69
2023-05-21T00:27:55.936Z,11.64
2023-05-21T00:28:55.961Z,11.88
2023-05-21T00:29:56.046Z,11.25
2023-05-21T00:30:56.111Z,10.42
2023-05-21T00:31:56.255Z,11.56
2023-05-21T00:32:56.219Z,10.97
2023-05-21T00:33:56.233Z,10.56
2023-05-21T00:34:56.271Z,10.91
2023-05-21T00:35:56.312Z,11.24
2023-05-21T00:36:56.377Z,11.53
2023-05-21T00:37:56.419Z,11.45
2023-05-21T00:38:56.381Z,11.44
2023-05-21T00:39:58.291Z,11.11
2023-05-21T00:40:56.444Z,11.87
2023-05-21T00:41:56.955Z,10.92
2023-05-21T00:42:56.438Z,11.39
2023-05-21T00:43:56.445Z,11.54
2023-05-21T00:44:56.448Z,11.91
2023-05-21T00:45:56.579Z,11.86
2023-05-21T00:46:56.451Z,11.87
2023-05-21T00:47:56.538Z,11.51
2023-05-21T00:48:56.444Z,11.09
2023-05-21T00:49:56.449Z,12.01
2023-05-21T00:50:56.475Z,11.51
2023-05-21T00:51:56.461Z,11.33
2023-05-21T00:52:56.448Z,11.50
2023-05-21T00:53:56.447Z,10.43
2023-05-21T00:54:56.448Z,11.33
2023-05-21T00:55:56.479Z,11.49
2023-05-21T00:56:56.460Z,11.67
2023-05-21T00:57:56.519Z,12.36
2023-05-21T00:58:56.552Z,12.63
2023-05-21T00:59:56.624Z,11.87
2023-05-21T01:00:56.724Z,12.89
2023-05-21T01:01:56.861Z,12.07
2023-05-21T01:02:56.920Z,11.52
2023-05-21T01:03:56.870Z,12.13
2023-05-21T01:04:56.939Z,12.88
2023-05-21T01:05:57.049Z,11.14
2023-05-21T01:06:57.081Z,12.41
2023-05-21T01:07:57.157Z,12.04
2023-05-21T01:08:57.218Z,13.23
2023-05-21T01:09:57.291Z,12.85
2023-05-21T01:10:57.362Z,12.21
2023-05-21T01:11:57.419Z,13.15
2023-05-21T01:12:57.540Z,12.75
2023-05-21T01:13:57.580Z,11.77
2023-05-21T01:14:57.625Z,11.50
2023-05-21T01:15:57.693Z,10.94
2023-05-21T01:16:57.806Z,11.88
2023-05-21T01:17:58.001Z,10.87
2023-05-21T01:18:57.993Z,11.38
2023-05-21T01:19:57.901Z,11.46
2023-05-21T01:20:57.961Z,12.81
2023-05-21T01:21:57.977Z,12.43
2023-05-21T01:22:57.980Z,11.75
2023-05-21T01:23:57.980Z,11.16
2023-05-21T01:24:58.049Z,11.07
2023-05-21T01:25:58.132Z,11.85
2023-05-21T01:26:58.209Z,12.77
2023-05-21T01:27:58.259Z,11.13
2023-05-21T01:28:58.360Z,10.83
2023-05-21T01:29:58.426Z,12.31
2023-05-21T01:30:57.506Z,11.37
2023-05-21T01:31:58.659Z,12.14
2023-05-21T01:32:58.786Z,12.98
2023-05-21T01:33:58.800Z,11.04
2023-05-21T01:34:58.814Z,10.62
2023-05-21T01:35:58.929Z,10.72
2023-05-21T01:36:58.972Z,11.06
2023-05-21T01:37:59.054Z,10.55
2023-05-21T01:38:59.135Z,10.58
2023-05-21T01:39:59.205Z,10.60
2023-05-21T01:40:59.268Z,10.71
2023-05-21T01:41:59.368Z,9.98
2023-05-21T01:42:59.420Z,11.08
2023-05-21T01:43:59.505Z,11.09
2023-05-21T01:44:59.604Z,10.88
2023-05-21T01:45:59.659Z,10.80
2023-05-21T01:46:59.712Z,10.40
2023-05-21T01:47:59.832Z,10.87
2023-05-21T01:48:59.866Z,10.14
2023-05-21T01:49:59.963Z,10.25
2023-05-21T01:50:59.966Z,11.25
2023-05-21T01:52:00.016Z,10.84
2023-05-21T01:52:59.998Z,10.67
2023-05-21T01:54:00.058Z,11.43
2023-05-21T01:55:00.138Z,11.54
2023-05-21T01:56:00.159Z,11.23
2023-05-21T01:57:00.179Z,10.91
2023-05-21T01:58:02.290Z,10.72
2023-05-21T01:59:00.221Z,9.75
2023-05-21T02:00:00.217Z,10.67
2023-05-21T02:01:00.233Z,11.85
2023-05-21T02:02:00.302Z,11.70
2023-05-21T02:03:00.356Z,11.52
2023-05-21T02:04:00.324Z,11.05
2023-05-21T02:05:00.285Z,11.43
2023-05-21T02:06:00.346Z,11.43
2023-05-21T02:07:00.294Z,10.73
2023-05-21T02:08:00.308Z,11.28
2023-05-21T02:09:00.316Z,11.59
2023-05-21T02:10:00.324Z,10.70
2023-05-21T02:11:00.356Z,10.50
2023-05-21T02:12:00.343Z,11.55
2023-05-21T02:13:00.396Z,11.53
2023-05-21T02:14:00.358Z,11.47
2023-05-21T02:15:00.389Z,11.33
2023-05-21T02:16:00.405Z,11.74
2023-05-21T02:17:00.389Z,10.95
2023-05-21T02:18:00.451Z,10.16
2023-05-21T02:19:00.459Z,11.12
2023-05-21T02:20:00.434Z,11.35
2023-05-21T02:21:00.448Z,10.75
2023-05-21T02:22:00.492Z,11.38
2023-05-21T02:23:00.479Z,10.64
2023-05-21T02:24:00.495Z,10.88
2023-05-21T02:25:00.528Z,11.98
2023-05-21T02:26:00.549Z,11.45
2023-05-21T02:27:00.555Z,11.74
2023-05-21T02:28:00.563Z,11.43
2023-05-21T02:29:00.593Z,10.83
2023-05-21T02:30:00.609Z,12.02
2023-05-21T02:31:00.619Z,10.70
2023-05-21T02:32:00.651Z,10.33
2023-05-21T02:33:00.725Z,10.56
2023-05-21T02:34:00.736Z,11.64
2023-05-21T02:35:00.719Z,11.53
2023-05-21T02:36:00.751Z,11.86
2023-05-21T02:37:00.770Z,11.59
2023-05-21T02:38:00.806Z,12.00
2023-05-21T02:39:00.826Z,12.98
2023-05-21T02:40:00.851Z,11.94
2023-05-21T02:41:00.885Z,13.08
2023-05-21T02:42:00.899Z,11.91
2023-05-21T02:43:00.942Z,11.52
2023-05-21T02:44:00.947Z,11.30
2023-05-21T02:45:00.979Z,10.66
2023-05-21T02:46:01.027Z,11.56
2023-05-21T02:47:01.030Z,10.38
2023-05-21T02:48:01.068Z,11.22
2023-05-21T02:49:01.073Z,12.54
2023-05-21T02:50:01.154Z,12.00
2023-05-21T02:51:01.215Z,12.13
2023-05-21T02:52:01.260Z,10.69
2023-05-21T02:53:02.467Z,11.28
2023-05-21T02:54:01.419Z,10.99
2023-05-21T02:55:01.479Z,11.77
2023-05-21T02:56:01.552Z,11.98
2023-05-21T02:57:01.616Z,11.50
2023-05-21T02:58:01.699Z,11.62
2023-05-21T02:59:01.778Z,11.82
2023-05-21T03:00:01.849Z,11.74
2023-05-21T03:01:01.941Z,11.04
2023-05-21T03:02:02.010Z,11.60
2023-05-21T03:03:02.150Z,12.44
2023-05-21T03:04:02.088Z,12.09
2023-05-21T03:05:02.167Z,12.61
2023-05-21T03:06:02.251Z,13.92
2023-05-21T03:07:02.330Z,13.74
2023-05-21T03:08:02.423Z,13.18
2023-05-21T03:09:02.498Z,11.55
2023-05-21T03:10:02.646Z,13.07
2023-05-21T03:11:02.687Z,11.94
2023-05-21T03:12:02.867Z,12.13
2023-05-21T03:13:02.903Z,11.85
2023-05-21T03:14:02.963Z,11.58
2023-05-21T03:15:03.055Z,12.07
2023-05-21T03:16:03.132Z,10.90
2023-05-21T03:17:03.248Z,11.36
2023-05-21T03:18:03.366Z,12.14
2023-05-21T03:19:03.455Z,13.08
2023-05-21T03:20:03.485Z,12.69
2023-05-21T03:21:03.556Z,12.74
2023-05-21T03:22:03.643Z,12.82
2023-05-21T03:23:03.703Z,12.59
2023-05-21T03:24:03.734Z,13.49
2023-05-21T03:25:03.783Z,11.71
2023-05-21T03:26:03.838Z,12.90
2023-05-21T03:27:03.860Z,13.37
2023-05-21T03:28:03.938Z,12.10
2023-05-21T03:29:03.946Z,13.49
2023-05-21T03:30:05.323Z,12.87
2023-05-21T03:31:03.998Z,12.65
2023-05-21T03:32:04.091Z,13.38
2023-05-21T03:33:04.088Z,12.44
2023-05-21T03:34:04.108Z,12.92
2023-05-21T03:35:04.126Z,12.99
2023-05-21T03:36:04.155Z,13.09
2023-05-21T03:37:04.168Z,12.61
2023-05-21T03:38:04.197Z,12.20
2023-05-21T03:39:04.215Z,12.61
2023-05-21T03:40:04.246Z,12.27
2023-05-21T03:41:04.279Z,13.26
2023-05-21T03:42:04.298Z,12.00
2023-05-21T03:43:04.302Z,11.80
2023-05-21T03:44:04.316Z,12.15
2023-05-21T03:45:04.331Z,12.29
2023-05-21T03:46:04.389Z,11.67
2023-05-21T03:47:04.369Z,12.08
2023-05-21T03:48:04.471Z,11.24
2023-05-21T03:49:04.417Z,12.41
2023-05-21T03:50:04.436Z,12.03
2023-05-21T03:51:04.454Z,11.38
2023-05-21T03:52:04.462Z,12.53
2023-05-21T03:53:04.477Z,11.62
2023-05-21T03:54:04.487Z,12.56
2023-05-21T03:55:04.528Z,12.43
2023-05-21T03:56:04.525Z,11.01
2023-05-21T03:57:04.565Z,11.58
2023-05-21T03:58:04.646Z,12.52
2023-05-21T03:59:04.688Z,11.67
2023-05-21T04:00:04.764Z,13.26
2023-05-21T04:01:04.850Z,12.09
2023-05-21T04:02:04.943Z,12.18
2023-05-21T04:03:05.015Z,11.90
2023-05-21T04:04:05.117Z,13.51
2023-05-21T04:05:05.136Z,12.53
2023-05-21T04:06:05.190Z,11.95
2023-05-21T04:07:05.270Z,12.07
2023-05-21T04:08:05.308Z,12.13
2023-05-21T04:09:05.361Z,11.03
2023-05-21T04:10:05.438Z,11.91
2023-05-21T04:11:05.486Z,13.42
2023-05-21T04:12:05.532Z,13.43
2023-05-21T04:13:05.581Z,11.84
2023-05-21T04:14:05.656Z,13.03
2023-05-21T04:15:05.664Z,14.05
2023-05-21T04:16:05.720Z,14.23
2023-05-21T04:17:05.740Z,14.94
2023-05-21T04:18:05.834Z,14.05
2023-05-21T04:19:05.850Z,13.77
2023-05-21T04:20:05.898Z,14.55
2023-05-21T04:21:05.959Z,14.80
2023-05-21T04:22:05.999Z,13.89
2023-05-21T04:23:06.059Z,14.14
2023-05-21T04:24:06.128Z,14.79
2023-05-21T04:25:06.155Z,14.83
2023-05-21T04:26:06.185Z,15.05
2023-05-21T04:27:06.172Z,14.57
2023-05-21T04:28:06.184Z,15.50
2023-05-21T04:29:06.201Z,14.32
2023-05-21T04:30:06.288Z,14.41
2023-05-21T04:31:06.352Z,15.02
2023-05-21T04:32:06.378Z,13.39
2023-05-21T04:33:06.442Z,13.44
2023-05-21T04:34:06.471Z,12.61
2023-05-21T04:35:06.505Z,13.88
2023-05-21T04:36:06.572Z,13.82
2023-05-21T04:37:06.610Z,14.51
2023-05-21T04:38:06.691Z,13.59
2023-05-21T04:39:06.720Z,16.73
2023-05-21T04:40:06.816Z,17.20
2023-05-21T04:41:06.858Z,18.31
2023-05-21T04:42:06.925Z,18.88
2023-05-21T04:43:07.054Z,18.53
2023-05-21T04:44:07.031Z,19.84
2023-05-21T04:45:07.071Z,21.62
2023-05-21T04:46:07.170Z,19.34
2023-05-21T04:47:07.268Z,18.44
2023-05-21T04:48:07.275Z,16.65
2023-05-21T04:49:07.293Z,15.88
2023-05-21T04:50:07.335Z,16.43
2023-05-21T04:51:07.403Z,15.13
2023-05-21T04:52:07.452Z,16.00
2023-05-21T04:53:07.483Z,16.30
2023-05-21T04:54:07.516Z,14.49
2023-05-21T04:55:07.531Z,16.38
2023-05-21T04:56:07.536Z,17.34
2023-05-21T04:57:07.512Z,16.74
2023-05-21T04:58:07.519Z,16.09
2023-05-21T04:59:07.525Z,15.06
2023-05-21T05:00:07.493Z,15.05
2023-05-21T05:01:07.574Z,14.51
2023-05-21T05:02:07.482Z,15.16
2023-05-21T05:03:07.473Z,15.34
2023-05-21T05:04:07.466Z,15.16
2023-05-21T05:05:07.493Z,15.55
2023-05-21T05:06:07.518Z,16.39
2023-05-21T05:07:07.564Z,14.72
2023-05-21T05:08:07.669Z,16.16
2023-05-21T05:09:07.660Z,16.15
2023-05-21T05:10:07.712Z,15.48
2023-05-21T05:11:07.754Z,16.31
2023-05-21T05:12:07.771Z,16.94
2023-05-21T05:13:07.829Z,17.20
2023-05-21T05:14:07.856Z,17.45
2023-05-21T05:15:07.870Z,17.18
2023-05-21T05:16:07.913Z,15.30
2023-05-21T05:17:07.917Z,16.74
2023-05-21T05:18:07.996Z,15.56
2023-05-21T05:19:08.035Z,16.45
2023-05-21T05:20:07.978Z,15.36
2023-05-21T05:21:07.978Z,15.30
2023-05-21T05:22:07.999Z,17.07
2023-05-21T05:23:08.023Z,14.53
2023-05-21T05:24:08.018Z,15.31
2023-05-21T05:25:08.002Z,14.78
2023-05-21T05:26:07.992Z,14.95
2023-05-21T05:27:07.976Z,15.93
2023-05-21T05:28:07.969Z,16.29
2023-05-21T05:29:07.936Z,15.91
2023-05-21T05:30:07.924Z,15.82
2023-05-21T05:31:07.926Z,14.01
2023-05-21T05:32:07.899Z,15.26
2023-05-21T05:33:07.992Z,15.14
2023-05-21T05:34:07.929Z,15.08
2023-05-21T05:35:07.946Z,14.93
2023-05-21T05:36:07.932Z,15.63
2023-05-21T05:37:07.911Z,14.24
2023-05-21T05:38:07.889Z,14.80
2023-05-21T05:39:07.892Z,15.18
2023-05-21T05:40:07.895Z,14.29
2023-05-21T05:41:07.892Z,16.75
2023-05-21T05:42:07.896Z,14.01
2023-05-21T05:43:07.947Z,14.14
2023-05-21T05:44:10.256Z,14.59
2023-05-21T05:45:07.894Z,15.24
2023-05-21T05:46:07.905Z,14.70
2023-05-21T05:47:07.870Z,15.67
2023-05-21T05:48:07.905Z,14.67
2023-05-21T05:49:07.829Z,15.38
2023-05-21T05:50:07.833Z,14.31
2023-05-21T05:51:07.788Z,14.58
2023-05-21T05:52:07.780Z,13.00
2023-05-21T05:53:07.752Z,13.86
2023-05-21T05:54:07.733Z,14.01
2023-05-21T05:55:07.701Z,13.71
2023-05-21T05:56:07.699Z,14.07
2023-05-21T05:57:07.690Z,14.10
2023-05-21T05:58:07.673Z,12.23
2023-05-21T05:59:07.658Z,13.91
2023-05-21T06:00:07.687Z,13.95
2023-05-21T06:01:07.632Z,14.34
2023-05-21T06:02:07.749Z,15.48
2023-05-21T06:03:07.715Z,14.22
2023-05-21T06:04:07.592Z,13.09
2023-05-21T06:05:07.595Z,14.93
2023-05-21T06:06:07.665Z,16.15
2023-05-21T06:07:07.579Z,15.63
2023-05-21T06:08:07.594Z,15.74
2023-05-21T06:09:07.558Z,15.46
2023-05-21T06:10:07.515Z,15.24
2023-05-21T06:11:07.492Z,16.17
2023-05-21T06:12:07.489Z,16.31
2023-05-21T06:13:07.470Z,14.65
2023-05-21T06:14:07.416Z,14.83
2023-05-21T06:15:07.393Z,13.64
2023-05-21T06:16:07.423Z,14.37
2023-05-21T06:17:07.307Z,14.58
2023-05-21T06:18:07.380Z,13.90
2023-05-21T06:19:07.309Z,14.14
2023-05-21T06:20:07.214Z,14.02
2023-05-21T06:21:07.171Z,14.84
2023-05-21T06:22:07.149Z,15.55
2023-05-21T06:23:07.148Z,14.16
2023-05-21T06:24:07.138Z,15.71
2023-05-21T06:25:07.175Z,13.94
2023-05-21T06:26:07.216Z,16.24
2023-05-21T06:27:07.268Z,13.42
2023-05-21T06:28:07.243Z,12.88
2023-05-21T06:29:07.260Z,14.48
2023-05-21T06:30:07.297Z,14.39
2023-05-21T06:31:07.308Z,13.72
2023-05-21T06:32:07.336Z,13.27
2023-05-21T06:33:07.389Z,13.35
2023-05-21T06:34:07.371Z,13.38
2023-05-21T06:35:07.289Z,13.70
2023-05-21T06:36:07.279Z,14.18
2023-05-21T06:37:07.271Z,13.74
2023-05-21T06:38:07.378Z,12.72
2023-05-21T06:39:07.317Z,12.99
2023-05-21T06:40:07.300Z,12.75
2023-05-21T06:41:07.276Z,12.74
2023-05-21T06:42:07.268Z,13.14
2023-05-21T06:43:07.278Z,16.99
2023-05-21T06:44:07.274Z,18.12
2023-05-21T06:45:07.273Z,15.96
2023-05-21T06:46:07.318Z,18.21
2023-05-21T06:47:07.280Z,18.15
2023-05-21T06:48:07.402Z,23.42
2023-05-21T06:49:07.318Z,24.22
2023-05-21T06:50:07.280Z,24.16
2023-05-21T06:51:07.291Z,21.76
2023-05-21T06:52:07.274Z,19.93
2023-05-21T06:53:07.258Z,17.87
2023-05-21T06:54:07.257Z,16.12
2023-05-21T06:55:07.172Z,17.38
2023-05-21T06:56:07.534Z,18.83
2023-05-21T06:57:07.067Z,18.74
2023-05-21T06:58:07.042Z,17.85
2023-05-21T06:59:07.014Z,16.38
2023-05-21T07:00:07.033Z,14.10
2023-05-21T07:01:07.036Z,14.45
2023-05-21T07:02:07.018Z,14.83
2023-05-21T07:03:07.123Z,15.90
2023-05-21T07:04:06.968Z,14.87
2023-05-21T07:05:06.953Z,14.59
2023-05-21T07:06:06.920Z,12.99
2023-05-21T07:07:06.878Z,12.91
2023-05-21T07:08:06.811Z,15.31
2023-05-21T07:09:06.734Z,15.02
2023-05-21T07:10:06.709Z,15.14
2023-05-21T07:11:06.641Z,13.82
2023-05-21T07:12:06.586Z,13.51
2023-05-21T07:13:06.562Z,13.58
2023-05-21T07:14:06.560Z,13.82
2023-05-21T07:15:06.516Z,15.55
2023-05-21T07:16:06.503Z,14.33
2023-05-21T07:17:06.544Z,16.36
2023-05-21T07:18:06.505Z,14.23
2023-05-21T07:19:06.431Z,14.19
2023-05-21T07:20:06.318Z,14.75
2023-05-21T07:21:06.256Z,14.56
2023-05-21T07:22:06.210Z,14.13
2023-05-21T07:23:06.167Z,13.74
2023-05-21T07:24:06.139Z,13.97
2023-05-21T07:25:06.102Z,13.19
2023-05-21T07:26:06.132Z,15.88
2023-05-21T07:27:14.382Z,14.75
2023-05-21T07:28:06.828Z,19.06
2023-05-21T07:29:05.900Z,17.92
2023-05-21T07:30:05.827Z,18.49
2023-05-21T07:31:05.826Z,17.58
2023-05-21T07:32:05.652Z,18.00
2023-05-21T07:33:05.622Z,16.00
2023-05-21T07:34:05.475Z,14.63
2023-05-21T07:35:05.387Z,14.42
2023-05-21T07:36:05.294Z,12.11
2023-05-21T07:37:05.196Z,10.91
2023-05-21T07:38:05.165Z,10.40
2023-05-21T07:39:05.393Z,10.44
2023-05-21T07:40:04.933Z,9.93
2023-05-21T07:41:04.884Z,10.00
2023-05-21T07:42:04.829Z,10.72
2023-05-21T07:43:04.730Z,10.31
2023-05-21T07:44:04.622Z,10.25
2023-05-21T07:45:04.540Z,9.76
2023-05-21T07:46:04.517Z,10.83
2023-05-21T07:47:04.417Z,10.57
2023-05-21T07:48:04.370Z,10.58
2023-05-21T07:49:04.247Z,11.10
2023-05-21T07:50:04.165Z,9.55
2023-05-21T07:51:04.072Z,9.84
2023-05-21T07:52:03.964Z,10.70
2023-05-21T07:53:03.962Z,11.24
2023-05-21T07:54:03.787Z,11.27
2023-05-21T07:55:03.697Z,9.93
2023-05-21T07:56:03.617Z,11.05
2023-05-21T07:57:03.524Z,10.53
2023-05-21T07:58:03.477Z,9.78
2023-05-21T07:59:03.404Z,10.44
2023-05-21T08:00:03.369Z,10.69
2023-05-21T08:01:03.315Z,9.82
2023-05-21T08:02:03.228Z,10.92
2023-05-21T08:03:03.268Z,11.09
2023-05-21T08:04:03.196Z,10.63
2023-05-21T08:05:03.038Z,11.16
2023-05-21T08:06:02.897Z,14.39
2023-05-21T08:07:02.836Z,11.77
2023-05-21T08:08:02.780Z,11.67
2023-05-21T08:09:02.687Z,11.15
2023-05-21T08:10:03.031Z,10.89
2023-05-21T08:11:02.500Z,10.74
2023-05-21T08:12:02.417Z,10.74
2023-05-21T08:13:02.325Z,10.83
2023-05-21T08:14:02.346Z,10.68
2023-05-21T08:15:02.120Z,9.83
2023-05-21T08:16:02.136Z,11.10
2023-05-21T08:17:01.906Z,10.63
2023-05-21T08:18:01.809Z,10.44
2023-05-21T08:19:01.702Z,10.38
2023-05-21T08:20:01.571Z,10.50
2023-05-21T08:21:01.502Z,11.28
2023-05-21T08:22:01.416Z,10.99
2023-05-21T08:23:01.324Z,11.85
2023-05-21T08:24:01.260Z,12.34
2023-05-21T08:25:01.185Z,11.55
2023-05-21T08:26:01.078Z,11.55
2023-05-21T08:27:00.980Z,9.89
2023-05-21T08:28:00.865Z,11.21
2023-05-21T08:29:00.758Z,10.62
2023-05-21T08:30:00.633Z,11.92
2023-05-21T08:31:00.546Z,12.10
2023-05-21T08:32:00.405Z,11.61
2023-05-21T08:33:00.285Z,11.75
2023-05-21T08:34:00.149Z,13.93
2023-05-21T08:35:00.070Z,14.15
2023-05-21T08:35:59.934Z,15.43
2023-05-21T08:36:59.819Z,17.14
2023-05-21T08:37:59.700Z,16.39
2023-05-21T08:38:59.558Z,15.28
2023-05-21T08:39:59.471Z,16.98
2023-05-21T08:40:59.359Z,18.30
2023-05-21T08:41:59.230Z,16.06
2023-05-21T08:42:59.134Z,15.41
2023-05-21T08:43:59.052Z,14.17
2023-05-21T08:44:58.974Z,12.96
2023-05-21T08:45:59.072Z,12.99
2023-05-21T08:46:58.797Z,12.37
2023-05-21T08:47:58.742Z,11.39
2023-05-21T08:48:58.552Z,11.65
2023-05-21T08:49:58.406Z,11.56
2023-05-21T08:50:58.279Z,11.16
2023-05-21T08:51:58.204Z,11.00
2023-05-21T08:52:58.151Z,10.90
2023-05-21T08:53:57.986Z,11.64
2023-05-21T08:54:57.895Z,11.35
2023-05-21T08:55:57.814Z,11.01
2023-05-21T08:56:57.704Z,11.95
2023-05-21T08:57:57.588Z,11.29
2023-05-21T08:58:57.466Z,12.11
2023-05-21T08:59:57.284Z,12.46
2023-05-21T09:00:57.200Z,12.17
2023-05-21T09:01:57.265Z,10.88
2023-05-21T09:02:56.997Z,11.77
2023-05-21T09:04:04.898Z,11.29
2023-05-21T09:04:56.663Z,10.90
2023-05-21T09:05:56.544Z,10.81
2023-05-21T09:06:56.401Z,11.01
2023-05-21T09:07:56.266Z,11.90
2023-05-21T09:08:56.134Z,11.42
2023-05-21T09:09:55.976Z,11.98
2023-05-21T09:10:55.876Z,10.68
2023-05-21T09:11:55.700Z,10.55
2023-05-21T09:12:55.543Z,10.71
2023-05-21T09:13:55.412Z,11.50
2023-05-21T09:14:55.261Z,10.81
2023-05-21T09:15:55.195Z,10.94
2023-05-21T09:16:54.978Z,11.12
2023-05-21T09:17:54.844Z,11.06
2023-05-21T09:18:54.684Z,11.54
2023-05-21T09:19:54.512Z,10.28
2023-05-21T09:20:54.379Z,10.55
2023-05-21T09:21:54.257Z,10.70
2023-05-21T09:22:54.116Z,11.14
2023-05-21T09:23:53.999Z,11.53
2023-05-21T09:24:53.871Z,10.82
2023-05-21T09:25:53.760Z,10.90
2023-05-21T09:26:53.634Z,11.96
2023-05-21T09:27:53.532Z,10.64
2023-05-21T09:28:53.429Z,11.49
2023-05-21T09:29:53.315Z,12.12
2023-05-21T09:30:53.187Z,10.82
2023-05-21T09:31:53.130Z,12.15
2023-05-21T09:32:52.972Z,11.55
2023-05-21T09:33:52.796Z,11.76
2023-05-21T09:34:52.638Z,12.48
2023-05-21T09:35:52.484Z,11.23
2023-05-21T09:36:52.339Z,11.84
2023-05-21T09:37:52.193Z,11.10
2023-05-21T09:38:52.329Z,11.58
2023-05-21T09:39:51.884Z,11.71
2023-05-21T09:40:52.589Z,11.77
2023-05-21T09:41:51.582Z,11.41
2023-05-21T09:42:51.441Z,11.24
2023-05-21T09:43:51.305Z,11.96
2023-05-21T09:44:51.153Z,10.35
2023-05-21T09:45:51.104Z,11.59
2023-05-21T09:46:51.047Z,10.72
2023-05-21T09:47:50.863Z,11.11
2023-05-21T09:48:50.706Z,10.63
2023-05-21T09:49:50.594Z,11.17
2023-05-21T09:50:50.469Z,10.58
2023-05-21T09:51:50.361Z,10.45
2023-05-21T09:52:50.262Z,10.40
2023-05-21T09:53:50.115Z,11.12
2023-05-21T09:54:50.017Z,10.90
2023-05-21T09:55:49.889Z,10.24
2023-05-21T09:56:49.778Z,10.02
2023-05-21T09:57:50.865Z,9.15
2023-05-21T09:58:49.521Z,10.38
2023-05-21T09:59:49.382Z,10.59
2023-05-21T10:00:49.200Z,9.80
2023-05-21T10:01:49.088Z,10.31
2023-05-21T10:02:48.914Z,10.31
2023-05-21T10:03:50.571Z,10.27
2023-05-21T10:04:48.585Z,10.04
2023-05-21T10:05:48.430Z,10.24
2023-05-21T10:06:48.233Z,10.14
2023-05-21T10:07:48.066Z,9.91
2023-05-21T10:08:47.891Z,9.64
2023-05-21T10:09:47.710Z,11.12
2023-05-21T10:10:47.540Z,10.24
2023-05-21T10:11:47.382Z,9.66
2023-05-21T10:12:47.208Z,10.20
2023-05-21T10:13:47.059Z,10.27
2023-05-21T10:14:46.895Z,10.14
2023-05-21T10:15:47.807Z,10.52
2023-05-21T10:16:46.703Z,9.62
2023-05-21T10:17:46.447Z,9.57
2023-05-21T10:18:46.254Z,10.87
2023-05-21T10:19:46.093Z,10.06
2023-05-21T10:20:45.953Z,9.55
2023-05-21T10:21:45.854Z,9.75
2023-05-21T10:22:45.658Z,10.68
2023-05-21T10:23:45.504Z,9.97
2023-05-21T10:24:45.370Z,8.95
2023-05-21T10:25:45.230Z,10.98
2023-05-21T10:26:45.107Z,9.89
2023-05-21T10:27:44.996Z,9.78
2023-05-21T10:28:44.834Z,9.98
2023-05-21T10:29:44.701Z,9.98
2023-05-21T10:30:44.544Z,10.56
2023-05-21T10:31:44.418Z,9.94
2023-05-21T10:32:44.334Z,9.62
2023-05-21T10:33:44.103Z,9.23
2023-05-21T10:34:43.954Z,9.44
2023-05-21T10:35:43.795Z,10.10
2023-05-21T10:36:43.639Z,10.25
2023-05-21T10:37:43.589Z,10.42
2023-05-21T10:38:43.327Z,10.14
2023-05-21T10:39:43.169Z,9.71
2023-05-21T10:40:43.002Z,9.82
2023-05-21T10:41:42.883Z,10.85
2023-05-21T10:42:42.711Z,10.01
2023-05-21T10:43:42.553Z,10.20
2023-05-21T10:44:42.405Z,9.59
2023-05-21T10:45:42.319Z,11.08
2023-05-21T10:46:42.093Z,10.77
2023-05-21T10:47:41.970Z,10.46
2023-05-21T10:48:41.792Z,10.02
2023-05-21T10:49:41.693Z,10.17
2023-05-21T10:50:41.540Z,9.90
2023-05-21T10:51:41.429Z,9.72
2023-05-21T10:52:41.341Z,10.36
2023-05-21T10:53:41.280Z,10.31
2023-05-21T10:54:41.151Z,9.92
2023-05-21T10:55:41.021Z,9.48
2023-05-21T10:56:40.928Z,9.04
2023-05-21T10:57:40.777Z,9.49
2023-05-21T10:58:40.642Z,9.32
2023-05-21T10:59:40.504Z,10.11
2023-05-21T11:00:40.380Z,8.97
2023-05-21T11:01:40.323Z,9.86
2023-05-21T11:02:40.291Z,9.82
2023-05-21T11:03:40.178Z,10.01
2023-05-21T11:04:40.066Z,9.65
2023-05-21T11:05:39.779Z,9.68
2023-05-21T11:06:39.656Z,9.17
2023-05-21T11:07:39.495Z,9.57
2023-05-21T11:08:39.399Z,9.79
2023-05-21T11:09:39.298Z,9.50
2023-05-21T11:10:39.393Z,10.23
2023-05-21T11:11:39.073Z,10.10
2023-05-21T11:12:38.970Z,8.77
2023-05-21T11:13:38.839Z,10.23
2023-05-21T11:14:38.726Z,8.54
2023-05-21T11:15:38.607Z,9.06
2023-05-21T11:16:38.485Z,9.54
2023-05-21T11:17:38.375Z,8.96
2023-05-21T11:18:38.204Z,9.39
2023-05-21T11:19:38.376Z,8.82
2023-05-21T11:20:38.137Z,9.40
2023-05-21T11:21:37.902Z,8.67
2023-05-21T11:22:37.743Z,8.21
2023-05-21T11:23:37.644Z,9.00
2023-05-21T11:24:37.504Z,8.56
2023-05-21T11:25:37.379Z,9.06
2023-05-21T11:26:37.222Z,8.07
2023-05-21T11:27:37.122Z,8.70
2023-05-21T11:28:37.016Z,8.43
2023-05-21T11:29:36.917Z,8.50
2023-05-21T11:30:38.356Z,8.54
2023-05-21T11:31:36.740Z,8.91
2023-05-21T11:32:36.536Z,8.60
2023-05-21T11:33:36.346Z,8.61
2023-05-21T11:34:36.191Z,8.77
2023-05-21T11:35:36.057Z,8.57
2023-05-21T11:36:36.188Z,8.49
2023-05-21T11:37:35.746Z,8.06
2023-05-21T11:38:35.581Z,8.35
2023-05-21T11:39:35.422Z,8.73
2023-05-21T11:40:35.470Z,8.88
2023-05-21T11:41:35.126Z,8.47
2023-05-21T11:42:34.945Z,7.94
2023-05-21T11:43:34.776Z,8.69
2023-05-21T11:44:34.606Z,9.02
2023-05-21T11:45:34.438Z,7.90
2023-05-21T11:46:34.311Z,8.75
2023-05-21T11:47:34.132Z,8.38
2023-05-21T11:48:33.923Z,8.57
2023-05-21T11:49:33.759Z,8.03
2023-05-21T11:50:33.746Z,8.63
2023-05-21T11:51:33.487Z,8.33
2023-05-21T11:52:33.358Z,8.55
2023-05-21T11:53:33.204Z,8.94
2023-05-21T11:54:33.049Z,8.88
2023-05-21T11:55:32.921Z,9.06
2023-05-21T11:56:32.850Z,8.23
2023-05-21T11:57:32.744Z,8.53
2023-05-21T11:58:32.592Z,7.75
2023-05-21T11:59:32.482Z,8.42
2023-05-21T12:00:32.361Z,7.72
2023-05-21T12:01:32.245Z,7.88
2023-05-21T12:02:32.378Z,8.57
2023-05-21T12:03:32.104Z,8.46
2023-05-21T12:04:31.891Z,7.72
2023-05-21T12:05:31.803Z,8.52
2023-05-21T12:06:31.726Z,8.35
2023-05-21T12:07:31.543Z,7.66
2023-05-21T12:08:31.311Z,7.89
2023-05-21T12:09:31.198Z,7.74
2023-05-21T12:10:31.095Z,8.57
2023-05-21T12:11:30.993Z,8.81
2023-05-21T12:12:38.885Z,8.54
2023-05-21T12:13:30.721Z,8.76
2023-05-21T12:14:30.600Z,9.34
2023-05-21T12:15:30.364Z,8.87
2023-05-21T12:16:30.233Z,8.78
2023-05-21T12:17:30.008Z,8.14
2023-05-21T12:18:29.824Z,8.83
2023-05-21T12:19:29.691Z,7.79
2023-05-21T12:20:29.499Z,8.13
2023-05-21T12:21:29.287Z,8.52
2023-05-21T12:22:29.108Z,9.18
2023-05-21T12:23:28.929Z,8.69
2023-05-21T12:24:28.755Z,8.30
2023-05-21T12:25:28.586Z,8.68
2023-05-21T12:26:28.454Z,8.32
2023-05-21T12:27:28.230Z,9.36
2023-05-21T12:28:28.039Z,9.39
2023-05-21T12:29:27.911Z,8.54
2023-05-21T12:30:27.722Z,8.44
2023-05-21T12:31:27.628Z,8.99
2023-05-21T12:32:27.429Z,8.87
2023-05-21T12:33:27.220Z,8.54
2023-05-21T12:34:27.068Z,8.26
2023-05-21T12:35:26.970Z,8.66
2023-05-21T12:36:26.765Z,9.06
2023-05-21T12:37:26.657Z,8.50
2023-05-21T12:38:26.449Z,7.92
2023-05-21T12:39:26.296Z,8.30
2023-05-21T12:40:26.125Z,8.31
2023-05-21T12:41:25.973Z,9.22
2023-05-21T12:42:25.825Z,7.65
2023-05-21T12:43:25.698Z,7.73
2023-05-21T12:44:25.509Z,8.49
2023-05-21T12:45:25.333Z,7.37
2023-05-21T12:46:25.167Z,7.84
2023-05-21T12:47:25.000Z,9.35
2023-05-21T12:48:24.824Z,8.30
2023-05-21T12:49:24.666Z,7.73
2023-05-21T12:50:24.512Z,8.31
2023-05-21T12:51:24.391Z,7.52
2023-05-21T12:52:24.222Z,7.78
2023-05-21T12:53:24.076Z,8.10
2023-05-21T12:54:23.919Z,8.41
2023-05-21T12:55:23.781Z,7.72
2023-05-21T12:56:23.618Z,8.48
2023-05-21T12:57:23.498Z,8.60